Latest Weather Observations for Horsham

IDV60801

Issued at 9:52 pm EST Monday 18 June 2018 (issued every 10 minutes, with the page automatically refreshed every 10 minutes)

About weather observations | Map of weather stations | Latest weather observations for VIC | Other Formats
Station Details ID: 079100 Name: HORSHAM AERODROME Lat: -36.67 Lon: 142.17 Height: 133.8 m
Data from the previous 72 hours. | See also: Recent months at Horsham
Date/Time
EST
Temp
°C
App
Temp
°C
Dew
Point
°C
Rel
Hum
%
Delta-T
°C
Wind Press
QNH
hPa
Press
MSL
hPa
Rain since
9am
mm
Dir  Spd
km/h
Gust
km/h
Spd
kts
Gust
kts
18/09:30pm 4.7 0.9 1.9 82 1.1 SSE 11 13 6 7 1028.2 1028.5 0.0
18/09:00pm 7.0 3.5 3.4 78 1.5 SSE 11 13 6 7 1028.5 1028.8 0.0
18/08:30pm 8.6 4.5 4.4 75 1.9 SSE 15 17 8 9 1028.8 1029.1 0.0
18/08:00pm 8.8 5.5 4.8 76 1.8 S 11 13 6 7 1028.7 1029.0 0.0
18/07:30pm 9.2 4.8 4.6 73 2.1 SSE 17 22 9 12 1028.5 1028.8 0.0
18/07:00pm 9.5 4.4 4.3 70 2.3 SSE 20 32 11 17 1028.5 1028.8 0.0
18/06:30pm 9.8 5.0 4.4 69 2.4 S 19 26 10 14 1028.2 1028.5 0.0
18/06:00pm 9.7 5.3 4.7 71 2.2 SSE 17 24 9 13 1028.1 1028.4 0.0
18/05:30pm 9.9 5.2 5.3 73 2.1 S 19 24 10 13 1027.7 1028.0 0.0
18/05:00pm 10.2 5.5 5.0 70 2.3 SSW 19 24 10 13 1027.8 1028.1 0.0
18/04:30pm 10.7 5.9 4.4 65 2.8 SSW 19 22 10 12 1027.7 1028.0 0.0
18/04:00pm 10.9 5.9 4.8 66 2.8 SSW 20 24 11 13 1027.7 1028.0 0.0
18/03:30pm 11.3 6.6 5.0 65 2.9 S 19 26 10 14 1027.3 1027.6 0.0
18/03:00pm 11.4 7.7 4.2 61 3.2 S 13 20 7 11 1027.4 1027.7 0.0
18/02:30pm 11.5 7.5 4.7 63 3.1 SSW 15 22 8 12 1027.4 1027.7 0.0
18/02:00pm 11.5 9.1 5.2 65 2.9 SW 7 19 4 10 1027.5 1027.8 0.0
18/01:30pm 11.4 7.8 4.8 64 3.0 SW 13 20 7 11 1027.6 1027.9 0.0
18/01:00pm 10.8 6.8 5.1 68 2.6 S 15 20 8 11 1027.9 1028.2 0.0
18/12:30pm 10.2 6.1 4.6 68 2.5 S 15 20 8 11 1028.2 1028.5 0.0
18/12:00pm 10.3 6.8 5.3 71 2.3 SSE 13 22 7 12 1028.4 1028.7 0.0
18/11:30am 9.8 5.1 5.2 73 2.1 S 19 24 10 13 1028.7 1029.0 0.0
18/11:00am 9.0 4.8 5.9 81 1.4 SSW 17 24 9 13 1028.9 1029.2 0.0
18/10:30am 8.1 3.5 5.6 84 1.1 SW 19 22 10 12 1028.8 1029.1 0.0
18/10:00am 7.2 2.7 6.0 92 0.5 SW 19 24 10 13 1028.6 1028.9 0.0
18/09:30am 6.0 2.2 5.6 97 0.2 SW 15 20 8 11 1028.7 1029.0 0.0
18/09:00am 4.6 0.9 4.2 97 0.2 SW 13 19 7 10 1028.6 1028.9 0.4
18/08:30am 3.0 -1.4 2.7 98 0.1 SW 15 19 8 10 1028.1 1028.4 0.4
18/08:00am 2.7 -1.8 2.4 98 0.1 SW 15 19 8 10 1027.8 1028.1 0.4
18/07:30am 2.0 -2.2 1.6 97 0.2 SW 13 17 7 9 1027.6 1027.9 0.4
18/07:00am 2.1 -2.8 1.8 98 0.1 SW 17 19 9 10 1027.3 1027.6 0.4
18/06:30am 1.8 -2.8 1.4 97 0.2 WSW 15 17 8 9 1027.2 1027.5 0.4
18/06:00am 2.0 -2.2 1.6 97 0.2 W 13 15 7 8 1026.9 1027.2 0.4
18/05:30am 2.6 -2.3 2.2 97 0.2 SW 17 19 9 10 1026.7 1027.0 0.4
18/05:00am 2.2 -2.4 1.8 97 0.2 SW 15 17 8 9 1026.7 1027.0 0.4
18/04:30am 2.7 -2.2 2.3 97 0.2 SW 17 20 9 11 1026.6 1026.9 0.2
18/04:00am 2.4 -2.5 1.8 96 0.2 SW 17 20 9 11 1026.4 1026.7 0.2
18/03:30am 3.1 -1.7 2.5 96 0.2 SW 17 19 9 10 1026.5 1026.8 0.2
18/03:00am 3.6 -1.7 2.9 95 0.3 SW 20 24 11 13 1026.2 1026.5 0.2
18/02:30am 3.9 -1.4 3.2 95 0.3 WSW 20 26 11 14 1026.1 1026.4 0.2
18/02:00am 3.4 -0.3 2.5 94 0.4 SW 11 17 6 9 1026.2 1026.5 0.2
18/01:30am 4.0 -0.3 3.1 94 0.4 WSW 15 19 8 10 1026.3 1026.6 0.2
18/01:00am 4.2 -0.9 3.2 93 0.4 WSW 19 22 10 12 1026.2 1026.5 0.2
18/12:30am 4.6 -0.6 3.4 92 0.5 WSW 20 24 11 13 1026.1 1026.4 0.2
18/12:00am 4.7 -0.5 3.5 92 0.5 SW 20 26 11 14 1026.3 1026.6 0.2
 
Date/Time
EST
Temp
°C
App
Temp
°C
Dew
Point
°C
Rel
Hum
%
Delta-T
°C
Wind Press
QNH
hPa
Press
MSL
hPa
Rain since
9am
mm
Dir  Spd
km/h
Gust
km/h
Spd
kts
Gust
kts
17/11:30pm 5.3 0.4 4.0 91 0.6 SW 19 22 10 12 1026.3 1026.6 0.2
17/11:00pm 5.6 0.7 4.2 91 0.6 SW 19 20 10 11 1026.1 1026.4 0.2
17/10:30pm 5.9 1.4 4.4 90 0.6 SW 17 19 9 10 1025.9 1026.2 0.2
17/10:00pm 6.2 1.7 4.4 88 0.8 SW 17 20 9 11 1025.8 1026.1 0.2
17/09:30pm 6.9 2.0 5.1 88 0.8 SW 20 26 11 14 1025.7 1026.0 0.2
17/09:00pm 6.9 2.1 4.6 85 1.0 SW 19 24 10 13 1025.6 1025.9 0.2
17/08:30pm 7.6 2.7 5.2 85 1.1 SSW 20 26 11 14 1025.4 1025.7 0.2
17/08:00pm 7.7 3.0 5.3 85 1.1 SSW 19 26 10 14 1024.9 1025.1 0.2
17/07:30pm 7.8 2.3 5.8 87 0.9 SSW 24 33 13 18 1024.6 1024.8 0.2
17/07:00pm 8.3 1.6 5.8 84 1.1 SSW 30 39 16 21 1024.1 1024.3 0.2
17/06:30pm 8.8 2.4 5.4 79 1.5 SSW 28 39 15 21 1023.7 1023.9 0.2
17/06:00pm 8.8 2.0 5.0 77 1.7 SSW 30 41 16 22 1023.3 1023.5 0.2
17/05:30pm 9.3 2.2 5.5 77 1.7 S 32 43 17 23 1022.9 1023.1 0.2
17/05:00pm 9.5 2.8 5.7 77 1.7 SSW 30 37 16 20 1022.5 1022.7 0.2
17/04:30pm 9.9 2.3 5.9 76 1.9 SSW 35 46 19 25 1022.2 1022.4 0.2
17/04:00pm 9.6 2.3 7.0 84 1.2 SSW 35 46 19 25 1022.0 1022.2 0.2
17/03:35pm 10.6 4.1 6.4 75 2.0 SSW 30 48 16 26 1021.5 1021.7 0.2
17/03:30pm 10.5 5.0 7.4 81 1.5 SSW 26 41 14 22 1021.6 1021.8 0.2
17/03:00pm 9.7 2.2 7.8 88 0.9 SSW 37 56 20 30 1021.2 1021.5 0.2
17/02:30pm 11.3 4.6 7.4 77 1.9 SW 32 43 17 23 1020.9 1021.2 0.0
17/02:00pm 10.4 3.6 7.6 83 1.3 SW 33 43 18 23 1020.9 1021.2 0.0
17/01:30pm 10.5 2.9 7.7 83 1.4 SW 37 46 20 25 1020.8 1021.1 0.0
17/01:00pm 11.3 4.0 7.4 77 1.9 SW 35 48 19 26 1020.8 1021.1 0.0
17/12:30pm 9.8 1.9 7.7 87 1.0 SW 39 52 21 28 1021.4 1021.6 0.0
17/12:24pm 10.5 1.7 7.2 80 1.6 SW 43 61 23 33 1021.2 1021.5 0.0
17/12:00pm 10.7 1.4 6.1 73 2.1 SSW 44 59 24 32 1020.9 1021.2 0.0
17/11:51am 10.5 2.9 5.9 73 2.1 SW 35 56 19 30 1021.1 1021.4 0.0
17/11:30am 10.5 3.0 6.5 76 1.9 SW 35 50 19 27 1021.1 1021.4 0.0
17/11:00am 10.1 2.7 6.6 79 1.6 SW 35 44 19 24 1021.1 1021.4 0.0
17/10:30am 9.4 1.6 6.5 82 1.4 SW 37 48 20 26 1021.0 1021.3 0.0
17/10:05am 9.2 3.2 7.0 86 1.0 SW 28 35 15 19 1020.9 1021.2 0.0
17/10:00am 9.0 2.6 7.0 87 0.9 SW 30 43 16 23 1020.9 1021.2 0.0
17/09:54am 8.7 2.2 6.7 87 0.9 SW 30 43 16 23 1020.9 1021.2 0.0
17/09:30am 8.4 1.9 6.7 89 0.8 WSW 30 39 16 21 1020.3 1020.6 0.0
17/09:00am 8.0 2.7 6.6 91 0.6 SW 24 33 13 18 1020.3 1020.6 0.4
17/08:30am 7.4 2.0 6.2 92 0.5 WSW 24 35 13 19 1019.8 1020.1 0.4
17/08:00am 7.2 2.2 6.3 94 0.4 WSW 22 32 12 17 1019.3 1019.6 0.4
17/07:30am 6.9 2.2 6.0 94 0.4 WSW 20 28 11 15 1019.0 1019.3 0.4
17/07:03am 7.1 1.7 6.4 95 0.3 WSW 24 33 13 18 1018.6 1018.8 0.4
17/07:00am 7.1 1.7 6.4 95 0.3 WSW 24 33 13 18 1018.6 1018.8 0.4
17/06:48am 7.1 1.7 6.4 95 0.3 WSW 24 30 13 16 1018.5 1018.7 0.2
17/06:30am 7.1 2.5 6.4 95 0.3 WSW 20 26 11 14 1018.3 1018.5 0.2
17/06:10am 6.8 2.3 6.2 96 0.3 WSW 19 24 10 13 1018.0 1018.2 0.2
17/06:00am 6.9 2.8 6.3 96 0.3 WSW 17 24 9 13 1017.9 1018.1 0.2
17/05:30am 7.0 2.4 6.3 95 0.3 WSW 20 24 11 13 1017.7 1017.9 0.2
17/05:06am 6.9 2.2 6.2 95 0.3 WSW 20 28 11 15 1017.7 1017.9 0.2
17/05:00am 6.9 2.2 6.2 95 0.3 WSW 20 26 11 14 1017.7 1017.9 0.2
17/04:30am 6.7 1.6 6.0 95 0.3 WSW 22 30 12 16 1017.6 1017.8 0.2
17/04:00am 6.7 0.5 6.0 95 0.3 W 28 35 15 19 1017.6 1017.8 0.2
17/03:30am 6.5 1.3 5.6 94 0.4 WSW 22 33 12 18 1017.6 1017.8 0.2
17/03:00am 6.5 0.9 5.6 94 0.4 WSW 24 32 13 17 1017.7 1017.9 0.2
17/02:30am 6.3 0.7 5.4 94 0.4 WSW 24 32 13 17 1017.6 1017.8 0.2
17/02:00am 6.1 0.5 5.4 95 0.3 WSW 24 32 13 17 1017.7 1017.9 0.2
17/01:30am 5.6 0.2 4.7 94 0.4 WSW 22 30 12 16 1017.8 1018.0 0.2
17/01:00am 5.2 0.1 4.3 94 0.4 WSW 20 28 11 15 1017.7 1017.9 0.0
17/12:30am 4.7 0.5 3.8 94 0.4 WSW 15 24 8 13 1017.6 1017.8 0.0
17/12:00am 4.5 -1.1 3.6 94 0.4 W 22 28 12 15 1017.5 1017.7 0.0
 
Date/Time
EST
Temp
°C
App
Temp
°C
Dew
Point
°C
Rel
Hum
%
Delta-T
°C
Wind Press
QNH
hPa
Press
MSL
hPa
Rain since
9am
mm
Dir  Spd
km/h
Gust
km/h
Spd
kts
Gust
kts
16/11:30pm 4.3 -0.4 3.4 94 0.4 W 17 24 9 13 1017.4 1017.6 0.0
16/11:00pm 4.3 -0.4 3.4 94 0.4 WSW 17 22 9 12 1017.1 1017.3 0.0
16/10:30pm 4.4 -0.6 3.5 94 0.4 WSW 19 28 10 15 1017.1 1017.3 0.0
16/10:00pm 4.2 -0.5 3.3 94 0.4 W 17 20 9 11 1017.1 1017.3 0.0
16/09:30pm 4.2 1.0 3.2 93 0.4 WSW 9 13 5 7 1016.9 1017.1 0.0
16/09:00pm 4.6 1.5 3.4 92 0.5 WSW 9 11 5 6 1016.6 1016.8 0.0
16/08:33pm 5.1 0.9 3.8 91 0.5 WSW 15 24 8 13 1016.6 1016.8 0.0
16/08:30pm 5.2 0.6 3.9 91 0.6 WSW 17 24 9 13 1016.6 1016.8 0.0
16/08:00pm 5.8 1.3 4.1 89 0.7 SW 17 20 9 11 1016.4 1016.6 0.0
16/07:30pm 6.4 0.7 4.7 89 0.7 SW 24 28 13 15 1016.3 1016.5 0.0
16/07:00pm 6.2 1.4 4.7 90 0.7 SW 19 28 10 15 1015.8 1016.0 0.0
16/06:43pm 6.3 1.5 4.9 91 0.6 SW 19 24 10 13 1015.6 1015.8 0.0
16/06:30pm 6.2 1.4 4.8 91 0.6 SW 19 22 10 12 1015.5 1015.7 0.0
16/06:00pm 6.3 1.3 4.8 90 0.7 SW 20 26 11 14 1015.2 1015.4 0.0
16/05:30pm 6.5 0.8 4.7 88 0.8 WSW 24 32 13 17 1015.0 1015.2 0.0
16/05:00pm 7.3 1.4 4.1 80 1.4 WSW 24 39 13 21 1014.8 1015.0 0.0
16/04:30pm 8.3 3.2 4.1 75 1.8 WSW 20 30 11 16 1014.6 1014.8 0.0
16/04:00pm 9.4 3.2 4.2 70 2.3 WSW 26 37 14 20 1014.3 1014.5 0.0
16/03:30pm 9.8 1.2 4.6 70 2.3 SW 39 50 21 27 1014.2 1014.4 0.0
16/03:23pm 10.2 2.2 3.9 65 2.8 W 35 48 19 26 1014.1 1014.3 0.0
16/03:17pm 11.1 4.2 4.8 65 2.9 W 30 48 16 26 1013.8 1014.0 0.0
16/03:00pm 9.9 2.1 1.8 57 3.4 W 32 43 17 23 1013.9 1014.1 0.0
16/02:30pm 10.9 5.0 3.7 61 3.2 W 24 32 13 17 1013.8 1014.0 0.0
16/02:00pm 11.4 4.3 3.4 58 3.5 W 30 43 16 23 1014.1 1014.3 0.0
16/01:30pm 11.0 3.9 3.5 60 3.3 W 30 39 16 21 1014.5 1014.7 0.0
16/01:00pm 10.9 4.6 3.9 62 3.1 W 26 35 14 19 1014.9 1015.1 0.0
16/12:30pm 10.5 3.9 4.4 66 2.7 W 28 39 15 21 1015.2 1015.4 0.0
16/12:00pm 10.3 4.3 5.3 71 2.3 WSW 26 35 14 19 1015.6 1015.8 0.0
16/11:30am 9.4 2.6 5.0 74 2.0 W 30 35 16 19 1015.9 1016.1 0.0
16/11:00am 9.0 2.6 5.2 77 1.7 W 28 35 15 19 1016.1 1016.3 0.0
16/10:30am 8.1 2.9 5.6 84 1.1 W 22 28 12 15 1016.2 1016.4 0.0
16/10:00am 7.2 1.6 5.2 87 0.9 W 24 30 13 16 1016.2 1016.4 0.0
16/09:30am 6.1 1.3 4.4 89 0.7 W 19 24 10 13 1016.2 1016.4 0.0
16/09:00am 5.4 0.4 4.4 93 0.4 W 20 24 11 13 1015.9 1016.1 0.4
16/08:30am 5.6 0.2 4.6 93 0.4 W 22 28 12 15 1015.7 1015.9 0.4
16/08:00am 5.7 0.7 4.7 93 0.4 W 20 26 11 14 1015.4 1015.6 0.4
16/07:30am 6.0 0.7 5.1 94 0.4 W 22 28 12 15 1015.5 1015.7 0.4
16/07:00am 6.0 0.7 5.1 94 0.4 W 22 26 12 14 1015.4 1015.6 0.4
16/06:30am 5.9 1.5 5.0 94 0.4 W 17 22 9 12 1015.2 1015.4 0.2
16/06:00am 5.4 1.7 4.4 93 0.4 WNW 13 15 7 8 1014.9 1015.1 0.2
16/05:30am 5.2 1.8 4.2 93 0.4 WNW 11 15 6 8 1014.6 1014.8 0.2
16/05:00am 5.6 1.9 4.6 93 0.4 WNW 13 15 7 8 1014.7 1014.9 0.2
16/04:30am 5.8 2.1 4.6 92 0.5 WNW 13 15 7 8 1014.9 1015.1 0.2
16/04:00am 6.0 1.2 4.6 91 0.6 WNW 19 22 10 12 1015.0 1015.2 0.2
16/03:30am 6.0 1.0 4.8 92 0.5 WNW 20 28 11 15 1015.2 1015.4 0.2
16/03:00am 5.6 0.6 4.6 93 0.4 WNW 20 26 11 14 1015.4 1015.6 0.2
16/02:30am 4.9 0.0 4.0 94 0.4 WNW 19 24 10 13 1015.4 1015.6 0.2
16/02:00am 4.6 -0.3 3.9 95 0.3 WNW 19 20 10 11 1015.4 1015.6 0.2
16/01:30am 4.6 -0.3 3.9 95 0.3 NW 19 22 10 12 1015.5 1015.7 0.2
16/01:00am 4.5 -0.1 3.8 95 0.3 WNW 17 20 9 11 1015.6 1015.8 0.2
16/12:30am 4.7 -0.4 4.0 95 0.3 WNW 20 22 11 12 1015.8 1016.0 0.2
16/12:00am 5.1 0.0 4.2 94 0.4 WNW 20 24 11 13 1016.0 1016.2 0.2
 
Date/Time
EST
Temp
°C
App
Temp
°C
Dew
Point
°C
Rel
Hum
%
Delta-T
°C
Wind Press
QNH
hPa
Press
MSL
hPa
Rain since
9am
mm
Dir  Spd
km/h
Gust
km/h
Spd
kts
Gust
kts
15/11:30pm 5.4 0.4 4.5 94 0.4 WNW 20 24 11 13 1016.1 1016.3 0.2
15/11:00pm 5.7 0.7 4.7 93 0.4 WNW 20 22 11 12 1016.1 1016.3 0.2
15/10:30pm 6.2 1.3 5.2 93 0.4 WNW 20 22 11 12 1016.0 1016.2 0.2
15/10:00pm 6.2 1.5 5.2 93 0.4 WNW 19 20 10 11 1016.0 1016.2 0.2

Other Formats:

Comma delimited format used in spreadsheet applications
http://www.bom.gov.au/fwo/IDV60801/IDV60801.95839.axf

JavaScript Object Notation format (JSON) in row-major order
http://www.bom.gov.au/fwo/IDV60801/IDV60801.95839.json